createdAt,value
2018-11-04T00:00:39.936Z,0
2018-11-04T00:01:20.528Z,0
2018-11-04T00:02:01.039Z,0
2018-11-04T00:02:41.599Z,0
2018-11-04T00:03:22.161Z,0
2018-11-04T00:04:02.729Z,0
2018-11-04T00:04:43.295Z,0
2018-11-04T00:05:23.855Z,0
2018-11-04T00:06:04.400Z,0
2018-11-04T00:06:44.946Z,0
2018-11-04T00:07:25.547Z,0
2018-11-04T00:08:06.116Z,0
2018-11-04T00:08:46.690Z,0
2018-11-04T00:09:27.235Z,0
2018-11-04T00:10:07.824Z,0
2018-11-04T00:10:48.380Z,0
2018-11-04T00:11:28.970Z,0
2018-11-04T00:12:09.525Z,0
2018-11-04T00:12:50.105Z,0
2018-11-04T00:13:30.651Z,0
2018-11-04T00:14:11.250Z,0
2018-11-04T00:14:51.864Z,0
2018-11-04T00:15:32.423Z,0
2018-11-04T00:16:13.044Z,0
2018-11-04T00:16:53.638Z,0
2018-11-04T00:17:34.201Z,0
2018-11-04T00:18:14.763Z,0
2018-11-04T00:18:55.323Z,0
2018-11-04T00:19:35.875Z,0
2018-11-04T00:20:16.486Z,0
2018-11-04T00:20:57.001Z,0
2018-11-04T00:21:37.554Z,0
2018-11-04T00:22:18.154Z,0
2018-11-04T00:22:58.697Z,0
2018-11-04T00:23:39.293Z,0
2018-11-04T00:24:19.831Z,0
2018-11-04T00:25:00.403Z,0
2018-11-04T00:25:40.964Z,0
2018-11-04T00:26:21.521Z,0
2018-11-04T00:27:02.076Z,0
2018-11-04T00:27:42.630Z,0
2018-11-04T00:28:23.177Z,0
2018-11-04T00:29:03.738Z,0
2018-11-04T00:29:44.380Z,0
2018-11-04T00:30:24.877Z,0
2018-11-04T00:31:05.444Z,0
2018-11-04T00:31:46.030Z,0
2018-11-04T00:32:26.578Z,0
2018-11-04T00:33:07.144Z,0
2018-11-04T00:33:47.687Z,0
2018-11-04T00:34:28.260Z,0
2018-11-04T00:35:08.835Z,0
2018-11-04T00:35:49.401Z,0
2018-11-04T00:36:29.972Z,0
2018-11-04T00:37:10.529Z,0
2018-11-04T00:37:51.075Z,0
2018-11-04T00:38:31.646Z,0
2018-11-04T00:39:12.220Z,0
2018-11-04T00:39:52.771Z,0
2018-11-04T00:40:33.333Z,0
2018-11-04T00:41:13.901Z,0
2018-11-04T00:41:54.473Z,0
2018-11-04T00:42:35.031Z,0
2018-11-04T00:43:15.585Z,0
2018-11-04T00:43:56.144Z,0
2018-11-04T00:44:36.712Z,0
2018-11-04T00:45:17.302Z,0
2018-11-04T00:45:57.825Z,0
2018-11-04T00:46:38.390Z,0
2018-11-04T00:47:18.947Z,0
2018-11-04T00:47:59.506Z,0
2018-11-04T00:48:40.060Z,0
2018-11-04T00:49:20.713Z,0
2018-11-04T00:50:01.293Z,0
2018-11-04T00:50:41.852Z,0
2018-11-04T00:51:22.405Z,0
2018-11-04T00:52:02.995Z,0
2018-11-04T00:52:43.554Z,0
2018-11-04T00:53:24.102Z,0
2018-11-04T00:54:04.655Z,0
2018-11-04T00:54:45.239Z,0
2018-11-04T00:55:25.799Z,0
2018-11-04T00:56:06.369Z,0
2018-11-04T00:56:46.911Z,0
2018-11-04T00:57:27.471Z,0
2018-11-04T00:58:08.036Z,0
2018-11-04T00:58:48.590Z,0
2018-11-04T00:59:29.141Z,0
2018-11-04T01:00:09.734Z,0
2018-11-04T01:00:50.297Z,0
2018-11-04T01:01:30.960Z,0
2018-11-04T01:02:11.478Z,0
2018-11-04T01:02:52.024Z,0
2018-11-04T01:03:32.589Z,0
2018-11-04T01:04:13.150Z,0
2018-11-04T01:04:53.712Z,0
2018-11-04T01:05:34.272Z,0
2018-11-04T01:06:14.835Z,0
2018-11-04T01:06:55.402Z,0
2018-11-04T01:07:35.958Z,0
2018-11-04T01:08:16.514Z,0
2018-11-04T01:08:57.078Z,0
2018-11-04T01:09:37.611Z,0
2018-11-04T01:10:18.182Z,0
2018-11-04T01:10:59.115Z,0
2018-11-04T01:11:39.672Z,0
2018-11-04T01:12:20.260Z,0
2018-11-04T01:13:00.811Z,0
2018-11-04T01:13:41.373Z,0
2018-11-04T01:14:21.932Z,0
2018-11-04T01:15:02.485Z,0
2018-11-04T01:15:43.078Z,0
2018-11-04T01:16:23.640Z,0
2018-11-04T01:17:04.197Z,0
2018-11-04T01:17:44.750Z,0
2018-11-04T01:18:25.310Z,0
2018-11-04T01:19:05.873Z,0
2018-11-04T01:19:46.431Z,0
2018-11-04T01:20:26.991Z,0
2018-11-04T01:21:07.598Z,0
2018-11-04T01:21:48.107Z,0
2018-11-04T01:22:28.650Z,0
2018-11-04T01:23:09.220Z,0
2018-11-04T01:23:49.791Z,0
2018-11-04T01:24:30.470Z,0
2018-11-04T01:25:10.922Z,0
2018-11-04T01:25:51.481Z,0
2018-11-04T01:26:32.037Z,0
2018-11-04T01:27:12.585Z,0
2018-11-04T01:27:53.137Z,0
2018-11-04T01:28:33.708Z,0
2018-11-04T01:29:14.338Z,0
2018-11-04T01:29:54.835Z,0
2018-11-04T01:30:35.392Z,0
2018-11-04T01:31:15.961Z,0
2018-11-04T01:31:56.518Z,0
2018-11-04T01:32:37.074Z,0
2018-11-04T01:33:20.293Z,0
2018-11-04T01:34:00.854Z,0
2018-11-04T01:34:41.396Z,0
2018-11-04T01:35:21.991Z,0
2018-11-04T01:36:02.523Z,0
2018-11-04T01:36:43.078Z,0
2018-11-04T01:37:23.624Z,0
2018-11-04T01:38:04.179Z,0
2018-11-04T01:38:44.738Z,0
2018-11-04T01:39:25.283Z,0
2018-11-04T01:40:05.845Z,0
2018-11-04T01:40:46.386Z,0
2018-11-04T01:41:26.953Z,0
2018-11-04T01:42:07.521Z,0
2018-11-04T01:42:48.069Z,0
2018-11-04T01:43:28.622Z,0
2018-11-04T01:44:09.163Z,0
2018-11-04T01:44:49.721Z,0
2018-11-04T01:45:30.289Z,0
2018-11-04T01:46:10.855Z,0
2018-11-04T01:46:51.399Z,0
2018-11-04T01:47:31.971Z,0
2018-11-04T01:48:12.543Z,0
2018-11-04T01:48:53.101Z,0
2018-11-04T01:49:33.647Z,0
2018-11-04T01:50:14.180Z,0
2018-11-04T01:50:54.729Z,0
2018-11-04T01:51:35.286Z,0
2018-11-04T01:52:15.858Z,0
2018-11-04T01:52:56.406Z,0
2018-11-04T01:53:36.980Z,0
2018-11-04T01:54:17.535Z,0
2018-11-04T01:54:58.122Z,0
2018-11-04T01:55:38.706Z,0
2018-11-04T01:56:19.277Z,0
2018-11-04T01:56:59.824Z,0
2018-11-04T01:57:40.422Z,0
2018-11-04T01:58:21.003Z,0
2018-11-04T01:59:01.575Z,0
2018-11-04T01:59:42.127Z,0
2018-11-04T02:00:22.687Z,0
2018-11-04T02:01:03.235Z,0
2018-11-04T02:01:43.799Z,0
2018-11-04T02:02:24.347Z,0
2018-11-04T02:03:04.916Z,0
2018-11-04T02:03:45.471Z,0
2018-11-04T02:04:26.040Z,0
2018-11-04T02:05:06.589Z,0
2018-11-04T02:05:47.142Z,0
2018-11-04T02:06:27.713Z,0
2018-11-04T02:07:08.271Z,0
2018-11-04T02:07:48.833Z,0
2018-11-04T02:08:29.383Z,0
2018-11-04T02:09:09.943Z,0
2018-11-04T02:09:50.493Z,0
2018-11-04T02:10:31.052Z,0
2018-11-04T02:11:11.604Z,0
2018-11-04T02:11:52.162Z,0
2018-11-04T02:12:32.734Z,0
2018-11-04T02:13:13.306Z,0
2018-11-04T02:13:53.851Z,0
2018-11-04T02:14:34.404Z,0
2018-11-04T02:15:14.972Z,0
2018-11-04T02:15:55.563Z,0
2018-11-04T02:16:36.187Z,0
2018-11-04T02:17:16.748Z,0
2018-11-04T02:17:57.307Z,0
2018-11-04T02:18:37.904Z,0
2018-11-04T02:19:18.466Z,0
2018-11-04T02:19:59.027Z,0
2018-11-04T02:20:39.588Z,0
2018-11-04T02:21:20.163Z,0
2018-11-04T02:22:00.722Z,0
2018-11-04T02:22:41.285Z,0
2018-11-04T02:23:21.841Z,0
2018-11-04T02:24:02.394Z,0
2018-11-04T02:24:42.951Z,0
2018-11-04T02:25:23.504Z,0
2018-11-04T02:26:04.080Z,0
2018-11-04T02:26:44.644Z,0
2018-11-04T02:27:25.222Z,0
2018-11-04T02:28:05.796Z,0
2018-11-04T02:28:46.341Z,0
2018-11-04T02:29:26.902Z,0
2018-11-04T02:30:07.460Z,0
2018-11-04T02:30:48.026Z,0
2018-11-04T02:31:28.589Z,0
2018-11-04T02:32:09.235Z,0
2018-11-04T02:32:49.804Z,0
2018-11-04T02:33:30.399Z,0
2018-11-04T02:34:10.932Z,0
2018-11-04T02:34:51.500Z,0
2018-11-04T02:35:32.069Z,0
2018-11-04T02:36:12.625Z,0
2018-11-04T02:36:53.175Z,0
2018-11-04T02:37:33.772Z,0
2018-11-04T02:38:14.335Z,0
2018-11-04T02:38:55.015Z,0
2018-11-04T02:39:35.614Z,0
2018-11-04T02:40:16.175Z,0
2018-11-04T02:40:56.747Z,0
2018-11-04T02:41:37.297Z,0
2018-11-04T02:42:17.887Z,0
2018-11-04T02:42:58.434Z,0
2018-11-04T02:43:38.991Z,0
2018-11-04T02:44:19.541Z,0
2018-11-04T02:45:00.109Z,0
2018-11-04T02:45:40.669Z,0
2018-11-04T02:46:21.217Z,0
2018-11-04T02:47:01.893Z,0
2018-11-04T02:47:42.334Z,0
2018-11-04T02:48:22.905Z,0
2018-11-04T02:49:03.429Z,0
2018-11-04T02:49:43.997Z,0
2018-11-04T02:50:24.552Z,0
2018-11-04T02:51:05.135Z,0
2018-11-04T02:51:45.710Z,0
2018-11-04T02:52:26.279Z,0
2018-11-04T02:53:06.833Z,0
2018-11-04T02:53:47.551Z,0
2018-11-04T02:54:28.083Z,0
2018-11-04T02:55:08.674Z,0
2018-11-04T02:55:49.220Z,0
2018-11-04T02:56:29.777Z,0
2018-11-04T02:57:10.347Z,0
2018-11-04T02:57:50.893Z,0
2018-11-04T02:58:31.469Z,0
2018-11-04T02:59:12.018Z,0
2018-11-04T02:59:52.568Z,0
2018-11-04T03:00:33.130Z,0
2018-11-04T03:01:13.683Z,0
2018-11-04T03:01:54.264Z,0
2018-11-04T03:02:34.816Z,0
2018-11-04T03:03:15.387Z,0
2018-11-04T03:03:55.941Z,0
2018-11-04T03:04:36.499Z,0
2018-11-04T03:05:17.067Z,0
2018-11-04T03:05:57.633Z,0
2018-11-04T03:06:38.185Z,0
2018-11-04T03:07:18.788Z,0
2018-11-04T03:07:59.371Z,0
2018-11-04T03:08:39.932Z,0
2018-11-04T03:09:20.537Z,0
2018-11-04T03:10:01.102Z,0
2018-11-04T03:10:41.673Z,0
2018-11-04T03:11:22.215Z,0
2018-11-04T03:12:02.785Z,0
2018-11-04T03:12:43.334Z,0
2018-11-04T03:13:23.888Z,0
2018-11-04T03:14:04.487Z,0
2018-11-04T03:14:45.078Z,0
2018-11-04T03:15:25.613Z,0
2018-11-04T03:16:06.166Z,0
2018-11-04T03:16:46.740Z,0
2018-11-04T03:17:27.290Z,0
2018-11-04T03:18:07.851Z,0
2018-11-04T03:18:48.420Z,0
2018-11-04T03:19:28.977Z,0
2018-11-04T03:20:09.542Z,0
2018-11-04T03:20:50.087Z,0
2018-11-04T03:21:30.641Z,0
2018-11-04T03:22:11.231Z,0
2018-11-04T03:22:51.769Z,0
2018-11-04T03:23:32.323Z,0
2018-11-04T03:24:12.872Z,0
2018-11-04T03:24:53.440Z,0
2018-11-04T03:25:34.009Z,0
2018-11-04T03:26:14.608Z,0
2018-11-04T03:26:55.146Z,0
2018-11-04T03:27:35.791Z,0
2018-11-04T03:28:16.371Z,0
2018-11-04T03:28:56.913Z,0
2018-11-04T03:29:37.478Z,0
2018-11-04T03:30:18.081Z,0
2018-11-04T03:30:58.637Z,0
2018-11-04T03:31:39.199Z,0
2018-11-04T03:32:19.752Z,0
2018-11-04T03:33:00.313Z,0
2018-11-04T03:33:40.886Z,0
2018-11-04T03:34:21.437Z,0
2018-11-04T03:35:01.985Z,0
2018-11-04T03:35:42.544Z,0
2018-11-04T03:36:23.096Z,0
2018-11-04T03:37:03.647Z,0
2018-11-04T03:37:44.258Z,0
2018-11-04T03:38:24.870Z,0
2018-11-04T03:39:05.438Z,0
2018-11-04T03:39:45.990Z,0
2018-11-04T03:40:26.524Z,0
2018-11-04T03:41:07.075Z,0
2018-11-04T03:41:47.642Z,0
2018-11-04T03:42:28.202Z,0
2018-11-04T03:43:08.750Z,0
2018-11-04T03:43:49.306Z,0
2018-11-04T03:44:29.864Z,0
2018-11-04T03:45:10.459Z,0
2018-11-04T03:45:51.047Z,0
2018-11-04T03:46:31.611Z,0
2018-11-04T03:47:12.184Z,0
2018-11-04T03:47:52.758Z,0
2018-11-04T03:48:33.331Z,0
2018-11-04T03:49:13.893Z,0
2018-11-04T03:49:54.473Z,0
2018-11-04T03:50:35.026Z,0
2018-11-04T03:51:15.585Z,0
2018-11-04T03:51:56.150Z,0
2018-11-04T03:52:36.701Z,0
2018-11-04T03:53:17.256Z,0
2018-11-04T03:53:57.844Z,0
2018-11-04T03:54:38.377Z,0
2018-11-04T03:55:18.932Z,0
2018-11-04T03:55:59.492Z,0
2018-11-04T03:56:40.121Z,0
2018-11-04T03:57:20.684Z,0
2018-11-04T03:58:01.235Z,0
2018-11-04T03:58:41.769Z,0
2018-11-04T03:59:22.332Z,0
2018-11-04T04:00:02.927Z,0
2018-11-04T04:00:43.487Z,0
2018-11-04T04:01:24.072Z,0
2018-11-04T04:02:04.648Z,0
2018-11-04T04:02:45.204Z,0
2018-11-04T04:03:25.791Z,0
2018-11-04T04:04:06.401Z,0
2018-11-04T04:04:46.955Z,0
2018-11-04T04:05:27.528Z,0
2018-11-04T04:06:08.088Z,0
2018-11-04T04:06:48.671Z,0
2018-11-04T04:07:29.207Z,0
2018-11-04T04:08:09.765Z,0
2018-11-04T04:08:50.327Z,0
2018-11-04T04:09:30.879Z,0
2018-11-04T04:10:11.428Z,0
2018-11-04T04:10:51.996Z,0
2018-11-04T04:11:32.564Z,0
2018-11-04T04:12:13.122Z,0
2018-11-04T04:12:53.688Z,0
2018-11-04T04:13:34.250Z,0
2018-11-04T04:14:14.834Z,0
2018-11-04T04:14:55.391Z,0
2018-11-04T04:15:35.981Z,0
2018-11-04T04:16:16.538Z,0
2018-11-04T04:16:57.098Z,0
2018-11-04T04:17:37.657Z,0
2018-11-04T04:18:18.214Z,0
2018-11-04T04:18:58.774Z,0
2018-11-04T04:19:39.329Z,0
2018-11-04T04:20:19.879Z,0
2018-11-04T04:21:00.442Z,0
2018-11-04T04:21:40.992Z,0
2018-11-04T04:22:21.560Z,0
2018-11-04T04:23:02.116Z,0
2018-11-04T04:23:42.677Z,0
2018-11-04T04:24:23.236Z,0
2018-11-04T04:25:03.791Z,0
2018-11-04T04:25:44.344Z,0
2018-11-04T04:26:24.917Z,0
2018-11-04T04:27:05.455Z,0
2018-11-04T04:27:46.017Z,0
2018-11-04T04:28:26.579Z,0
2018-11-04T04:29:07.127Z,0
2018-11-04T04:29:47.680Z,0
2018-11-04T04:30:28.240Z,0
2018-11-04T04:31:08.800Z,0
2018-11-04T04:31:49.352Z,0
2018-11-04T04:32:29.938Z,0
2018-11-04T04:33:10.505Z,0
2018-11-04T04:33:51.073Z,0
2018-11-04T04:34:31.661Z,0
2018-11-04T04:35:12.230Z,0
2018-11-04T04:35:52.755Z,0
2018-11-04T04:36:33.319Z,0
2018-11-04T04:37:13.871Z,0
2018-11-04T04:37:54.441Z,0
2018-11-04T04:38:35.001Z,0
2018-11-04T04:39:15.551Z,0
2018-11-04T04:39:56.118Z,0
2018-11-04T04:40:36.673Z,0
2018-11-04T04:41:17.215Z,0
2018-11-04T04:41:57.779Z,0
2018-11-04T04:42:38.344Z,0
2018-11-04T04:43:18.909Z,0
2018-11-04T04:43:59.482Z,0
2018-11-04T04:44:40.080Z,0
2018-11-04T04:45:20.647Z,0
2018-11-04T04:46:01.217Z,0
2018-11-04T04:46:41.765Z,0
2018-11-04T04:47:22.322Z,0
2018-11-04T04:48:02.910Z,0
2018-11-04T04:48:43.565Z,0
2018-11-04T04:49:24.127Z,0
2018-11-04T04:50:04.696Z,0
2018-11-04T04:50:45.261Z,0
2018-11-04T04:51:25.823Z,0
2018-11-04T04:52:06.376Z,0
2018-11-04T04:52:46.932Z,0
2018-11-04T04:53:27.495Z,0
2018-11-04T04:54:08.065Z,0
2018-11-04T04:54:48.637Z,0
2018-11-04T04:55:29.209Z,0
2018-11-04T04:56:09.765Z,0
2018-11-04T04:56:50.338Z,0
2018-11-04T04:57:30.883Z,0
2018-11-04T04:58:11.452Z,0
2018-11-04T04:58:51.989Z,0
2018-11-04T04:59:32.552Z,0
2018-11-04T05:00:13.094Z,0
2018-11-04T05:00:53.637Z,0
2018-11-04T05:01:34.192Z,0
2018-11-04T05:02:14.761Z,0
2018-11-04T05:02:55.330Z,0
2018-11-04T05:03:35.889Z,0
2018-11-04T05:04:16.460Z,0
2018-11-04T05:04:57.088Z,0
2018-11-04T05:05:37.633Z,0
2018-11-04T05:06:18.192Z,0
2018-11-04T05:06:58.748Z,0
2018-11-04T05:07:39.310Z,0
2018-11-04T05:08:19.896Z,0
2018-11-04T05:09:00.449Z,0
2018-11-04T05:09:41.030Z,0
2018-11-04T05:10:21.585Z,0
2018-11-04T05:11:02.162Z,0
2018-11-04T05:11:42.741Z,0
2018-11-04T05:12:23.309Z,0
2018-11-04T05:13:03.874Z,0
2018-11-04T05:13:44.433Z,0
2018-11-04T05:14:25.006Z,0
2018-11-04T05:15:05.585Z,0
2018-11-04T05:15:46.147Z,0
2018-11-04T05:16:26.727Z,0
2018-11-04T05:17:07.281Z,0
2018-11-04T05:17:47.824Z,0
2018-11-04T05:18:28.394Z,0
2018-11-04T05:19:08.941Z,0
2018-11-04T05:19:49.513Z,0
2018-11-04T05:20:30.067Z,0
2018-11-04T05:21:10.620Z,0
2018-11-04T05:21:51.197Z,0
2018-11-04T05:22:31.784Z,0
2018-11-04T05:23:12.330Z,0
2018-11-04T05:23:52.906Z,0
2018-11-04T05:24:33.461Z,0
2018-11-04T05:25:14.034Z,0
2018-11-04T05:25:54.601Z,0
2018-11-04T05:26:35.157Z,0
2018-11-04T05:27:15.720Z,0
2018-11-04T05:27:56.281Z,0
2018-11-04T05:28:36.845Z,0
2018-11-04T05:29:17.394Z,0
2018-11-04T05:29:57.940Z,0
2018-11-04T05:30:38.503Z,0
2018-11-04T05:31:19.074Z,0
2018-11-04T05:31:59.629Z,0
2018-11-04T05:32:40.173Z,0
2018-11-04T05:33:20.757Z,0
2018-11-04T05:34:01.353Z,0
2018-11-04T05:34:41.944Z,0
2018-11-04T05:35:22.519Z,0
2018-11-04T05:36:03.074Z,0
2018-11-04T05:36:43.629Z,0
2018-11-04T05:37:24.185Z,0
2018-11-04T05:38:04.741Z,0
2018-11-04T05:38:45.275Z,0
2018-11-04T05:39:25.852Z,0
2018-11-04T05:40:06.423Z,0
2018-11-04T05:40:46.981Z,0
2018-11-04T05:41:27.565Z,0
2018-11-04T05:42:08.129Z,0
2018-11-04T05:42:48.700Z,0
2018-11-04T05:43:29.248Z,0
2018-11-04T05:44:09.805Z,0
2018-11-04T05:44:50.356Z,0
2018-11-04T05:45:30.908Z,0
2018-11-04T05:46:11.471Z,4
2018-11-04T05:46:52.040Z,4
2018-11-04T05:47:32.589Z,4
2018-11-04T05:48:13.159Z,0
2018-11-04T05:48:53.762Z,0
2018-11-04T05:49:34.362Z,4
2018-11-04T05:50:14.927Z,4
2018-11-04T05:50:55.483Z,4
2018-11-04T05:51:36.055Z,4
2018-11-04T05:52:16.643Z,4
2018-11-04T05:52:57.209Z,4
2018-11-04T05:53:37.785Z,4
2018-11-04T05:54:18.344Z,4
2018-11-04T05:54:58.902Z,4
2018-11-04T05:55:39.457Z,8
2018-11-04T05:56:20.000Z,8
2018-11-04T05:57:00.562Z,8
2018-11-04T05:57:41.119Z,8
2018-11-04T05:58:21.662Z,8
2018-11-04T05:59:02.219Z,8
2018-11-04T05:59:42.773Z,12
2018-11-04T06:00:23.332Z,12
2018-11-04T06:01:03.913Z,12
2018-11-04T06:01:44.488Z,16
2018-11-04T06:02:25.081Z,12
2018-11-04T06:03:05.658Z,16
2018-11-04T06:03:46.264Z,16
2018-11-04T06:04:26.855Z,16
2018-11-04T06:05:07.432Z,16
2018-11-04T06:05:47.937Z,20
2018-11-04T06:06:28.536Z,20
2018-11-04T06:07:09.094Z,20
2018-11-04T06:07:49.645Z,20
2018-11-04T06:08:30.229Z,20
2018-11-04T06:09:10.834Z,20
2018-11-04T06:09:51.430Z,24
2018-11-04T06:10:32.747Z,28
2018-11-04T06:11:14.545Z,28
2018-11-04T06:11:56.219Z,32
2018-11-04T06:12:38.010Z,32
2018-11-04T06:13:20.390Z,32
2018-11-04T06:14:02.005Z,32
2018-11-04T06:14:44.228Z,32
2018-11-04T06:15:25.902Z,28
2018-11-04T06:16:08.112Z,32
2018-11-04T06:16:49.609Z,32
2018-11-04T06:17:31.128Z,36
2018-11-04T06:18:12.842Z,36
2018-11-04T06:18:55.441Z,36
2018-11-04T06:19:37.163Z,36
2018-11-04T06:20:20.403Z,44
2018-11-04T06:21:01.964Z,44
2018-11-04T06:21:45.611Z,48
2018-11-04T06:22:26.789Z,52
2018-11-04T06:23:07.341Z,56
2018-11-04T06:23:47.901Z,52
2018-11-04T06:24:28.450Z,52
2018-11-04T06:25:09.013Z,52
2018-11-04T06:25:49.650Z,52
2018-11-04T06:26:30.249Z,60
2018-11-04T06:27:10.809Z,68
2018-11-04T06:27:51.347Z,72
2018-11-04T06:28:31.913Z,80
2018-11-04T06:29:12.489Z,76
2018-11-04T06:29:53.071Z,76
2018-11-04T06:30:33.623Z,76
2018-11-04T06:31:14.209Z,76
2018-11-04T06:31:54.763Z,80
2018-11-04T06:32:35.358Z,88
2018-11-04T06:33:15.916Z,96
2018-11-04T06:33:56.481Z,96
2018-11-04T06:34:37.121Z,92
2018-11-04T06:35:17.613Z,92
2018-11-04T06:35:58.172Z,100
2018-11-04T06:36:38.824Z,104
2018-11-04T06:37:19.380Z,104
2018-11-04T06:37:59.953Z,108
2018-11-04T06:38:40.515Z,108
2018-11-04T06:39:21.080Z,112
2018-11-04T06:40:01.641Z,116
2018-11-04T06:40:42.273Z,120
2018-11-04T06:41:22.841Z,128
2018-11-04T06:42:03.420Z,128
2018-11-04T06:42:44.003Z,132
2018-11-04T06:43:24.549Z,136
2018-11-04T06:44:05.099Z,136
2018-11-04T06:44:45.650Z,136
2018-11-04T06:45:26.197Z,140
2018-11-04T06:46:06.769Z,152
2018-11-04T06:46:47.354Z,152
2018-11-04T06:47:27.948Z,164
2018-11-04T06:48:08.456Z,172
2018-11-04T06:48:49.012Z,180
2018-11-04T06:49:29.559Z,184
2018-11-04T06:50:10.131Z,180
2018-11-04T06:50:50.674Z,192
2018-11-04T06:51:31.244Z,212
2018-11-04T06:52:11.826Z,220
2018-11-04T06:52:52.338Z,220
2018-11-04T06:53:32.878Z,232
2018-11-04T06:54:13.440Z,236
2018-11-04T06:54:53.998Z,248
2018-11-04T06:55:34.547Z,240
2018-11-04T06:56:15.121Z,244
2018-11-04T06:56:55.688Z,252
2018-11-04T06:57:38.044Z,276
2018-11-04T06:58:18.618Z,284
2018-11-04T06:58:59.203Z,304
2018-11-04T06:59:39.763Z,312
2018-11-04T07:00:20.330Z,308
2018-11-04T07:01:00.880Z,300
2018-11-04T07:01:41.435Z,316
2018-11-04T07:02:21.989Z,328
2018-11-04T07:03:02.577Z,340
2018-11-04T07:03:43.144Z,336
2018-11-04T07:04:23.711Z,332
2018-11-04T07:05:04.278Z,336
2018-11-04T07:05:44.833Z,324
2018-11-04T07:06:25.422Z,320
2018-11-04T07:07:05.984Z,348
2018-11-04T07:07:46.550Z,340
2018-11-04T07:08:27.107Z,336
2018-11-04T07:09:07.861Z,336
2018-11-04T07:09:48.229Z,344
2018-11-04T07:10:28.825Z,356
2018-11-04T07:11:09.378Z,364
2018-11-04T07:11:49.949Z,376
2018-11-04T07:12:30.506Z,388
2018-11-04T07:13:11.072Z,424
2018-11-04T07:13:51.643Z,444
2018-11-04T07:14:32.194Z,464
2018-11-04T07:15:12.739Z,476
2018-11-04T07:15:53.306Z,496
2018-11-04T07:16:33.860Z,492
2018-11-04T07:17:14.418Z,508
2018-11-04T07:17:55.017Z,536
2018-11-04T07:18:35.566Z,552
2018-11-04T07:19:16.144Z,532
2018-11-04T07:19:56.736Z,536
2018-11-04T07:20:37.250Z,532
2018-11-04T07:21:17.810Z,528
2018-11-04T07:21:58.380Z,536
2018-11-04T07:22:38.947Z,560
2018-11-04T07:23:19.494Z,600
2018-11-04T07:24:00.051Z,604
2018-11-04T07:24:40.595Z,572
2018-11-04T07:25:21.202Z,548
2018-11-04T07:26:01.707Z,532
2018-11-04T07:26:42.287Z,548
2018-11-04T07:27:22.849Z,572
2018-11-04T07:28:03.404Z,604
2018-11-04T07:28:43.965Z,616
2018-11-04T07:29:24.519Z,596
2018-11-04T07:30:05.087Z,588
2018-11-04T07:30:45.663Z,576
2018-11-04T07:31:26.210Z,564
2018-11-04T07:32:06.839Z,608
2018-11-04T07:32:47.322Z,676
2018-11-04T07:33:27.875Z,720
2018-11-04T07:34:08.420Z,720
2018-11-04T07:34:48.964Z,712
2018-11-04T07:35:29.533Z,740
2018-11-04T07:36:10.113Z,764
2018-11-04T07:36:50.665Z,720
2018-11-04T07:37:31.227Z,680
2018-11-04T07:38:11.793Z,632
2018-11-04T07:38:52.372Z,568
2018-11-04T07:39:32.924Z,552
2018-11-04T07:40:13.474Z,520
2018-11-04T07:40:54.019Z,528
2018-11-04T07:41:34.611Z,540
2018-11-04T07:42:15.163Z,588
2018-11-04T07:42:55.718Z,628
2018-11-04T07:43:36.267Z,636
2018-11-04T07:44:16.852Z,636
2018-11-04T07:44:57.385Z,648
2018-11-04T07:45:37.952Z,680
2018-11-04T07:46:18.513Z,680
2018-11-04T07:46:59.063Z,676
2018-11-04T07:47:39.622Z,716
2018-11-04T07:48:20.197Z,728
2018-11-04T07:49:00.762Z,720
2018-11-04T07:49:41.308Z,656
2018-11-04T07:50:21.909Z,652
2018-11-04T07:51:02.411Z,720
2018-11-04T07:51:43.071Z,760
2018-11-04T07:52:23.515Z,852
2018-11-04T07:53:04.088Z,932
2018-11-04T07:53:44.645Z,860
2018-11-04T07:54:25.213Z,832
2018-11-04T07:55:05.755Z,800
2018-11-04T07:55:46.331Z,776
2018-11-04T07:56:26.935Z,760
2018-11-04T07:57:07.656Z,760
2018-11-04T07:57:48.044Z,792
2018-11-04T07:58:29.814Z,780
2018-11-04T07:59:10.657Z,768
2018-11-04T07:59:51.244Z,744
2018-11-04T08:00:31.814Z,748
2018-11-04T08:01:12.461Z,744
2018-11-04T08:01:53.116Z,768
2018-11-04T08:02:33.675Z,764
2018-11-04T08:03:14.252Z,800
2018-11-04T08:03:54.802Z,836
2018-11-04T08:04:35.356Z,860
2018-11-04T08:05:16.042Z,844
2018-11-04T08:05:56.911Z,824
2018-11-04T08:06:37.529Z,852
2018-11-04T08:07:18.097Z,868
2018-11-04T08:07:58.665Z,880
2018-11-04T08:08:39.216Z,808
2018-11-04T08:09:19.777Z,808
2018-11-04T08:10:00.369Z,796
2018-11-04T08:10:40.933Z,876
2018-11-04T08:11:21.489Z,884
2018-11-04T08:12:02.080Z,864
2018-11-04T08:12:42.670Z,860
2018-11-04T08:13:23.273Z,824
2018-11-04T08:14:03.911Z,840
2018-11-04T08:14:44.478Z,868
2018-11-04T08:15:25.151Z,912
2018-11-04T08:16:05.772Z,928
2018-11-04T08:16:46.353Z,932
2018-11-04T08:17:26.913Z,908
2018-11-04T08:18:07.473Z,884
2018-11-04T08:18:48.167Z,900
2018-11-04T08:19:28.718Z,920
2018-11-04T08:20:11.435Z,972
2018-11-04T08:20:52.411Z,1056
2018-11-04T08:21:32.403Z,1112
2018-11-04T08:22:12.955Z,1144
2018-11-04T08:22:53.564Z,1108
2018-11-04T08:23:34.421Z,1036
2018-11-04T08:24:15.019Z,1056
2018-11-04T08:24:55.601Z,1168
2018-11-04T08:25:36.155Z,1228
2018-11-04T08:26:16.727Z,1328
2018-11-04T08:26:57.269Z,1352
2018-11-04T08:27:37.878Z,1332
2018-11-04T08:28:18.393Z,1336
2018-11-04T08:28:58.955Z,1360
2018-11-04T08:29:39.542Z,1316
2018-11-04T08:30:21.313Z,1252
2018-11-04T08:31:02.109Z,1200
2018-11-04T08:31:42.731Z,1188
2018-11-04T08:32:23.331Z,1260
2018-11-04T08:33:03.922Z,1400
2018-11-04T08:33:44.506Z,1588
2018-11-04T08:34:25.140Z,1792
2018-11-04T08:35:05.758Z,1664
2018-11-04T08:35:46.366Z,1436
2018-11-04T08:36:26.973Z,1248
2018-11-04T08:37:07.519Z,1152
2018-11-04T08:37:48.091Z,1036
2018-11-04T08:38:28.672Z,960
2018-11-04T08:39:09.279Z,896
2018-11-04T08:39:50.132Z,868
2018-11-04T08:40:30.895Z,836
2018-11-04T08:41:11.293Z,856
2018-11-04T08:41:51.876Z,844
2018-11-04T08:42:32.433Z,848
2018-11-04T08:43:12.997Z,820
2018-11-04T08:43:53.598Z,856
2018-11-04T08:44:34.241Z,856
2018-11-04T08:45:14.798Z,868
2018-11-04T08:45:55.493Z,908
2018-11-04T08:46:35.998Z,916
2018-11-04T08:47:16.597Z,944
2018-11-04T08:47:58.120Z,960
2018-11-04T08:48:38.684Z,964
2018-11-04T08:49:19.298Z,960
2018-11-04T08:49:59.913Z,948
2018-11-04T08:50:40.461Z,952
2018-11-04T08:51:21.008Z,936
2018-11-04T08:52:01.833Z,972
2018-11-04T08:52:43.718Z,980
2018-11-04T08:53:24.481Z,1012
2018-11-04T08:54:05.345Z,1012
2018-11-04T08:54:46.466Z,1020
2018-11-04T08:55:27.472Z,996
2018-11-04T08:56:08.606Z,1000
2018-11-04T08:56:49.443Z,960
2018-11-04T08:57:30.162Z,928
2018-11-04T08:58:11.649Z,904
2018-11-04T08:58:52.467Z,940
2018-11-04T08:59:33.015Z,1012
2018-11-04T09:00:13.632Z,1048
2018-11-04T09:00:54.141Z,1036
2018-11-04T09:01:34.741Z,1020
2018-11-04T09:02:15.518Z,1076
2018-11-04T09:02:56.442Z,1096
2018-11-04T09:03:36.966Z,1152
2018-11-04T09:04:17.543Z,1200
2018-11-04T09:04:58.199Z,1156
2018-11-04T09:05:38.769Z,1196
2018-11-04T09:06:19.339Z,1220
2018-11-04T09:06:59.903Z,1232
2018-11-04T09:07:40.459Z,1264
2018-11-04T09:08:21.039Z,1284
2018-11-04T09:09:01.616Z,1300
2018-11-04T09:09:42.161Z,1264
2018-11-04T09:10:22.720Z,1304
2018-11-04T09:11:03.329Z,1332
2018-11-04T09:11:43.894Z,1380
2018-11-04T09:12:24.468Z,1440
2018-11-04T09:13:05.050Z,1476
2018-11-04T09:13:45.673Z,1440
2018-11-04T09:14:26.654Z,1380
2018-11-04T09:15:07.092Z,1356
2018-11-04T09:15:47.634Z,1328
2018-11-04T09:16:28.314Z,1292
2018-11-04T09:17:08.873Z,1280
2018-11-04T09:17:49.551Z,1272
2018-11-04T09:18:30.142Z,1308
2018-11-04T09:19:10.701Z,1304
2018-11-04T09:19:51.277Z,1292
2018-11-04T09:20:31.822Z,1284
2018-11-04T09:21:12.405Z,1256
2018-11-04T09:21:53.137Z,1228
2018-11-04T09:22:33.630Z,1220
2018-11-04T09:23:14.104Z,1280
2018-11-04T09:23:54.662Z,1360
2018-11-04T09:24:35.255Z,1376
2018-11-04T09:25:15.812Z,1368
2018-11-04T09:25:56.400Z,1396
2018-11-04T09:26:37.031Z,1380
2018-11-04T09:27:17.616Z,1348
2018-11-04T09:27:58.188Z,1340
2018-11-04T09:28:38.758Z,1388
2018-11-04T09:29:19.465Z,1352
2018-11-04T09:30:00.064Z,1292
2018-11-04T09:30:40.639Z,1288
2018-11-04T09:31:21.417Z,1228
2018-11-04T09:32:01.970Z,1196
2018-11-04T09:32:42.996Z,1196
2018-11-04T09:33:23.954Z,1260
2018-11-04T09:34:05.999Z,1252
2018-11-04T09:34:47.014Z,1232
2018-11-04T09:35:28.351Z,1240
2018-11-04T09:36:09.165Z,1284
2018-11-04T09:36:49.603Z,1244
2018-11-04T09:37:30.174Z,1192
2018-11-04T09:38:10.712Z,1184
2018-11-04T09:38:51.412Z,1172
2018-11-04T09:39:32.055Z,1136
2018-11-04T09:40:12.629Z,1144
2018-11-04T09:40:53.196Z,1276
2018-11-04T09:41:33.778Z,1288
2018-11-04T09:42:14.329Z,1212
2018-11-04T09:42:54.924Z,1160
2018-11-04T09:43:35.490Z,1168